Pembroke, NC

1:58 PM EST on March 05, 2015 (GMT -0500)
Mackall Army Air Field | Change Station
CLOSE
Current Station
Airport
Location: Mackall AAF,
Elevation: 377 ft
Nearby Weather Stations
Active Advisory: Flood Warning

Elev 377 ft 35.04 °N, 79.50 °W | Updated 12 minutes ago

Overcast
Overcast
70 °F
Feels Like 70 °F
N
21
Wind Variable Wind from NNW
Gusts 36 mph

Today
High -- | Low -- °F
--% Chance of Precip.
Yesterday
High -- | Low -- °F
Precip. -- in
6:41 AM 6:15 PM
Full, 100% visible
Pressure 29.93 in
Visibility 9.0 miles
Clouds Mostly Cloudy 2700 ft
Dew Point 52 °F
Humidity 53%
Rainfall 0.00 in
Snow Depth Not available.
UV 3 out of 12
Pollen 7.10 out of 12
Air Quality Not available.
Flu Activity Not available.
SPECI KHFF 051846Z AUTO 33018G31KT 9SM -SHRA BKN027 21/11 A2993 RMK AO2 WSHFT 45 RAB26E30SHRAB30E40RAB40E41SHRAB41 BKN V OVC

More Conditions Fewer Conditions

Pressure 29.93 in
Visibility 9.0 miles
Clouds Mostly Cloudy 2700 ft
Dew Point 52 °F
Humidity 53%
Rainfall 0.00 in
Snow Depth Not available.
UV 3 out of 12
Pollen 7.10 out of 12
Air Quality Not available.
Flu Activity Not available.
SPECI KHFF 051846Z AUTO 33018G31KT 9SM -SHRA BKN027 21/11 A2993 RMK AO2 WSHFT 45 RAB26E30SHRAB30E40RAB40E41SHRAB41 BKN V OVC

More Conditions Fewer Conditions

10-Day Weather Forecast

Almanac

Astronomy

Mar. 05, 2015 Rise Set
Actual Time
Civil Twilight
Nautical Twilight
Astronomical Twilight
Moon
Length of Visible Light
Length of Day
Tomorrow will be .
, % of the Moon is Illuminated

Today's Extremes

State Highs State Lows

Community

WunderPhotos

Upload Photos

1,802,905 photos uploaded!

WunderBlogs® & News

Nearby

Air Quality

  Air Quality AQ Index Pollutant
Not available.

Snow Depth

Station Depth Elevation

Earthquake Activity

City Distance Mag. Time & Date
Minimum magnitude displayed is 2.5.

Coastal Water Temperatures

Place Temperature

Nearby Weather Stations

Flood Warning
Statement as of 10:28 AM EST on March 05, 2015

The Flood Warning continues for
the lumber near Lumberton.
* Until further notice.
* At 7:00 am Thursday the stage was 13.7 feet.
* Flood stage is 13.0 feet.
* Minor flooding is occurring and minor flooding is forecast.
* Forecast... the river will continue rising to near 14.1 feet by early tomorrow
afternoon then begin falling.
* Impact... at 15.0 feet... flood waters will affect yards in The Pines area, Coxs
Pond area, and along River Road. Additional residential property will be
affected between the pepsi plant and the river on the east side of Lumberton.


Lat... Lon 3467 7916 3468 7904 3457 7891 3452 7899
          3461 7907 3458 7915